createdAt,value
2023-03-18T00:01:05.652Z,2.85
2023-03-18T00:03:38.876Z,3.05
2023-03-18T00:06:14.129Z,2.60
2023-03-18T00:08:48.506Z,2.45
2023-03-18T00:11:21.648Z,2.55
2023-03-18T00:13:54.783Z,2.13
2023-03-18T00:16:27.258Z,3.08
2023-03-18T00:18:59.639Z,2.67
2023-03-18T00:21:32.371Z,2.33
2023-03-18T00:24:05.218Z,2.70
2023-03-18T00:26:37.825Z,2.90
2023-03-18T00:29:10.915Z,2.28
2023-03-18T00:31:43.728Z,2.92
2023-03-18T00:34:16.637Z,2.50
2023-03-18T00:36:50.974Z,2.60
2023-03-18T00:39:29.314Z,2.60
2023-03-18T00:42:08.110Z,2.40
2023-03-18T00:44:41.363Z,2.30
2023-03-18T00:47:13.722Z,2.92
2023-03-18T00:49:46.343Z,3.40
2023-03-18T00:52:19.625Z,2.88
2023-03-18T00:54:52.444Z,6.53
2023-03-18T00:57:24.539Z,3.20
2023-03-18T00:59:59.592Z,2.60
2023-03-18T01:02:32.137Z,2.65
2023-03-18T01:05:07.217Z,2.63
2023-03-18T01:07:40.158Z,2.72
2023-03-18T01:10:14.923Z,2.58
2023-03-18T01:12:47.177Z,2.42
2023-03-18T01:15:22.824Z,2.65
2023-03-18T01:17:56.912Z,2.70
2023-03-18T01:20:31.986Z,2.60
2023-03-18T01:23:06.218Z,2.67
2023-03-18T01:25:39.840Z,2.90
2023-03-18T01:28:13.755Z,2.83
2023-03-18T01:30:46.572Z,2.63
2023-03-18T01:33:20.471Z,2.60
2023-03-18T01:35:58.464Z,2.83
2023-03-18T01:38:34.888Z,2.80
2023-03-18T01:41:17.822Z,3.13
2023-03-18T01:43:51.003Z,2.58
2023-03-18T01:46:39.786Z,2.50
2023-03-18T01:49:29.826Z,2.60
2023-03-18T01:52:20.698Z,2.88
2023-03-18T01:55:01.466Z,2.35
2023-03-18T01:57:35.450Z,2.78
2023-03-18T02:00:11.382Z,2.78
2023-03-18T02:02:49.251Z,2.83
2023-03-18T02:07:57.109Z,2.60
2023-03-18T02:10:32.103Z,2.95
2023-03-18T02:13:10.462Z,2.42
2023-03-18T02:16:00.474Z,3.45
2023-03-18T02:18:46.811Z,2.83
2023-03-18T02:21:54.105Z,2.17
2023-03-18T02:28:03.443Z,2.75
2023-03-18T02:30:51.499Z,2.50
2023-03-18T02:33:31.752Z,2.63
2023-03-18T02:36:15.181Z,2.50
2023-03-18T02:38:49.194Z,3.10
2023-03-18T02:41:34.680Z,2.38
2023-03-18T02:44:07.733Z,2.55
2023-03-18T02:46:59.512Z,2.75
2023-03-18T02:49:33.030Z,3.55
2023-03-18T02:52:06.855Z,2.75
2023-03-18T02:54:41.392Z,2.55
2023-03-18T02:57:13.363Z,2.78
2023-03-18T02:59:52.168Z,2.78
2023-03-18T03:02:45.866Z,3.28
2023-03-18T03:05:18.676Z,2.30
2023-03-18T03:07:51.097Z,2.50
2023-03-18T03:10:23.443Z,2.40
2023-03-18T03:12:56.169Z,2.70
2023-03-18T03:15:29.770Z,2.28
2023-03-18T03:18:04.642Z,2.67
2023-03-18T03:20:39.281Z,2.00
2023-03-18T03:23:15.880Z,2.22
2023-03-18T03:25:47.966Z,2.47
2023-03-18T03:28:21.673Z,2.20
2023-03-18T03:30:55.701Z,2.50
2023-03-18T03:36:22.439Z,2.47
2023-03-18T03:38:55.423Z,3.08
2023-03-18T03:41:28.678Z,2.42
2023-03-18T03:44:01.539Z,2.45
2023-03-18T03:46:33.817Z,2.40
2023-03-18T03:49:07.069Z,2.88
2023-03-18T03:51:39.520Z,2.47
2023-03-18T03:54:13.249Z,2.63
2023-03-18T03:56:46.480Z,2.58
2023-03-18T03:59:19.271Z,3.70
2023-03-18T04:02:09.694Z,2.80
2023-03-18T04:04:42.588Z,2.60
2023-03-18T04:07:23.746Z,3.00
2023-03-18T04:09:56.089Z,2.83
2023-03-18T04:12:29.827Z,2.50
2023-03-18T04:15:07.810Z,2.60
2023-03-18T04:17:41.561Z,2.70
2023-03-18T04:20:14.001Z,3.00
2023-03-18T04:22:47.184Z,3.03
2023-03-18T04:25:21.230Z,2.80
2023-03-18T04:27:57.507Z,3.08
2023-03-18T04:30:31.149Z,2.70
2023-03-18T04:33:12.853Z,2.63
2023-03-18T04:35:48.000Z,2.40
2023-03-18T04:38:21.953Z,2.90
2023-03-18T04:40:57.335Z,2.67
2023-03-18T04:43:29.581Z,3.00
2023-03-18T04:46:02.410Z,2.58
2023-03-18T04:48:34.892Z,2.78
2023-03-18T04:51:10.761Z,2.90
2023-03-18T04:53:43.610Z,3.33
2023-03-18T04:56:17.491Z,2.90
2023-03-18T04:58:54.713Z,2.65
2023-03-18T05:01:34.272Z,3.08
2023-03-18T05:04:07.128Z,2.42
2023-03-18T05:06:54.244Z,2.80
2023-03-18T05:09:34.157Z,2.92
2023-03-18T05:12:19.498Z,2.60
2023-03-18T05:14:52.412Z,2.65
2023-03-18T05:17:25.919Z,2.72
2023-03-18T05:20:04.734Z,2.92
2023-03-18T05:22:37.261Z,3.08
2023-03-18T05:25:19.058Z,2.85
2023-03-18T05:27:51.425Z,2.58
2023-03-18T05:30:33.315Z,2.85
2023-03-18T05:33:27.551Z,3.10
2023-03-18T05:36:02.470Z,2.58
2023-03-18T05:38:40.685Z,2.50
2023-03-18T05:41:14.203Z,2.47
2023-03-18T05:43:48.628Z,2.60
2023-03-18T05:46:42.729Z,2.63
2023-03-18T05:49:23.575Z,2.65
2023-03-18T05:52:17.796Z,2.97
2023-03-18T05:54:52.632Z,2.63
2023-03-18T05:57:31.507Z,3.17
2023-03-18T06:00:09.959Z,3.38
2023-03-18T06:02:48.772Z,2.80
2023-03-18T06:05:24.741Z,2.57
2023-03-18T06:07:57.915Z,3.10
2023-03-18T06:10:30.138Z,3.03
2023-03-18T06:13:02.784Z,2.95
2023-03-18T06:15:34.818Z,3.17
2023-03-18T06:18:08.098Z,2.97
2023-03-18T06:20:41.126Z,2.70
2023-03-18T06:23:14.941Z,2.70
2023-03-18T06:25:47.093Z,2.55
2023-03-18T06:28:21.199Z,3.58
2023-03-18T06:30:58.989Z,3.17
2023-03-18T06:33:32.970Z,2.90
2023-03-18T06:36:07.006Z,2.80
2023-03-18T06:38:38.981Z,3.13
2023-03-18T06:41:13.542Z,2.78
2023-03-18T06:43:56.093Z,3.22
2023-03-18T06:46:29.407Z,2.75
2023-03-18T06:49:05.354Z,2.67
2023-03-18T06:51:42.564Z,3.40
2023-03-18T06:54:15.443Z,2.75
2023-03-18T06:56:47.436Z,2.60
2023-03-18T06:59:23.861Z,2.80
2023-03-18T07:01:57.973Z,2.55
2023-03-18T07:04:30.901Z,3.08
2023-03-18T07:07:06.247Z,2.80
2023-03-18T07:09:41.080Z,2.40
2023-03-18T07:12:14.381Z,2.83
2023-03-18T07:14:48.950Z,2.45
2023-03-18T07:17:24.342Z,2.30
2023-03-18T07:19:57.575Z,3.05
2023-03-18T07:22:30.942Z,2.78
2023-03-18T07:25:03.496Z,2.50
2023-03-18T07:27:36.312Z,2.17
2023-03-18T07:30:10.159Z,2.58
2023-03-18T07:32:43.224Z,2.47
2023-03-18T07:35:15.841Z,2.58
2023-03-18T07:37:48.955Z,2.78
2023-03-18T07:40:22.730Z,2.83
2023-03-18T07:42:54.637Z,2.60
2023-03-18T07:45:30.892Z,2.70
2023-03-18T07:48:05.910Z,2.33
2023-03-18T07:50:38.676Z,2.85
2023-03-18T07:53:12.073Z,2.85
2023-03-18T07:55:44.717Z,3.15
2023-03-18T07:58:17.970Z,3.83
2023-03-18T08:00:51.006Z,2.47
2023-03-18T08:03:23.142Z,2.65
2023-03-18T08:05:56.962Z,2.40
2023-03-18T08:08:30.400Z,2.65
2023-03-18T08:13:55.403Z,2.40
2023-03-18T08:16:27.744Z,2.47
2023-03-18T08:19:00.561Z,2.28
2023-03-18T08:21:32.568Z,2.60
2023-03-18T08:24:05.689Z,2.22
2023-03-18T08:26:37.626Z,2.00
2023-03-18T08:29:10.356Z,2.17
2023-03-18T08:31:42.926Z,1.75
2023-03-18T08:34:16.749Z,1.90
2023-03-18T08:36:48.785Z,2.53
2023-03-18T08:39:23.054Z,1.95
2023-03-18T08:41:55.167Z,1.80
2023-03-18T08:44:27.853Z,2.08
2023-03-18T08:47:01.718Z,2.13
2023-03-18T08:49:33.981Z,2.28
2023-03-18T08:52:07.272Z,2.33
2023-03-18T08:54:40.129Z,2.00
2023-03-18T08:57:13.074Z,2.30
2023-03-18T08:59:44.950Z,1.90
2023-03-18T09:02:18.748Z,1.80
2023-03-18T09:04:51.164Z,2.13
2023-03-18T09:07:23.865Z,2.50
2023-03-18T09:09:55.757Z,3.00
2023-03-18T09:12:28.987Z,2.30
2023-03-18T09:15:02.070Z,2.58
2023-03-18T09:17:50.962Z,2.10
2023-03-18T09:20:28.328Z,2.30
2023-03-18T09:23:01.510Z,2.42
2023-03-18T09:25:35.384Z,2.38
2023-03-18T09:28:07.612Z,2.45
2023-03-18T09:30:41.070Z,2.10
2023-03-18T09:33:13.927Z,2.03
2023-03-18T09:35:46.778Z,2.65
2023-03-18T09:38:20.046Z,2.47
2023-03-18T09:41:25.629Z,2.17
2023-03-18T09:44:37.084Z,2.10
2023-03-18T09:47:31.653Z,2.47
2023-03-18T09:50:18.397Z,2.17
2023-03-18T09:53:05.990Z,2.40
2023-03-18T09:55:44.121Z,2.60
2023-03-18T09:58:43.324Z,2.00
2023-03-18T10:01:16.679Z,2.27
2023-03-18T10:03:58.479Z,2.60
2023-03-18T10:06:31.704Z,2.40
2023-03-18T10:09:19.752Z,2.13
2023-03-18T10:12:00.418Z,2.20
2023-03-18T10:14:45.291Z,2.40
2023-03-18T10:17:47.305Z,2.35
2023-03-18T10:20:20.566Z,2.40
2023-03-18T10:23:29.952Z,2.22
2023-03-18T10:26:16.057Z,2.55
2023-03-18T10:29:35.648Z,2.00
2023-03-18T10:32:48.642Z,2.40
2023-03-18T10:35:39.054Z,2.30
2023-03-18T10:38:41.777Z,2.72
2023-03-18T10:41:29.059Z,2.22
2023-03-18T10:44:13.868Z,2.20
2023-03-18T10:46:48.205Z,2.47
2023-03-18T10:49:29.489Z,2.50
2023-03-18T10:52:16.156Z,2.28
2023-03-18T10:54:52.823Z,2.50
2023-03-18T10:57:26.068Z,2.40
2023-03-18T10:59:58.792Z,2.50
2023-03-18T11:02:38.756Z,2.97
2023-03-18T11:05:23.237Z,7.90
2023-03-18T11:08:09.036Z,2.75
2023-03-18T11:10:46.520Z,2.93
2023-03-18T11:13:20.552Z,3.00
2023-03-18T11:15:57.106Z,2.45
2023-03-18T11:18:29.741Z,2.88
2023-03-18T11:21:05.100Z,2.63
2023-03-18T11:23:58.323Z,3.00
2023-03-18T11:26:31.076Z,2.78
2023-03-18T11:29:18.964Z,3.03
2023-03-18T11:32:00.045Z,2.75
2023-03-18T11:34:35.473Z,2.70
2023-03-18T11:37:13.525Z,3.20
2023-03-18T11:39:45.999Z,2.72
2023-03-18T11:42:23.483Z,3.08
2023-03-18T11:45:01.354Z,3.20
2023-03-18T11:47:36.945Z,3.05
2023-03-18T11:50:26.163Z,2.60
2023-03-18T11:53:18.161Z,3.22
2023-03-18T11:56:03.707Z,2.90
2023-03-18T11:59:04.394Z,2.60
2023-03-18T12:02:11.496Z,2.60
2023-03-18T12:05:14.984Z,2.80
2023-03-18T12:07:52.616Z,2.90
2023-03-18T12:10:37.942Z,2.50
2023-03-18T12:13:39.496Z,3.33
2023-03-18T12:17:04.590Z,2.78
2023-03-18T12:20:25.609Z,2.97
2023-03-18T12:23:25.755Z,2.85
2023-03-18T12:26:08.837Z,2.92
2023-03-18T12:29:12.462Z,3.20
2023-03-18T12:31:45.783Z,3.58
2023-03-18T12:35:10.150Z,2.47
2023-03-18T12:38:23.212Z,2.80
2023-03-18T12:41:18.253Z,3.00
2023-03-18T12:44:06.787Z,2.83
2023-03-18T12:47:00.312Z,3.22
2023-03-18T12:49:35.650Z,3.03
2023-03-18T12:52:11.593Z,3.30
2023-03-18T12:55:06.211Z,3.00
2023-03-18T12:58:03.978Z,2.95
2023-03-18T13:00:53.386Z,2.72
2023-03-18T13:03:40.871Z,3.03
2023-03-18T13:06:43.645Z,2.75
2023-03-18T13:09:34.614Z,3.10
2023-03-18T13:12:29.133Z,3.30
2023-03-18T13:15:22.964Z,3.05
2023-03-18T13:18:03.237Z,2.83
2023-03-18T13:20:38.809Z,2.88
2023-03-18T13:23:16.978Z,2.80
2023-03-18T13:26:22.242Z,3.20
2023-03-18T13:29:39.121Z,2.65
2023-03-18T13:32:49.724Z,3.00
2023-03-18T13:35:53.276Z,3.05
2023-03-18T13:38:57.799Z,2.85
2023-03-18T13:42:13.120Z,2.72
2023-03-18T13:44:51.882Z,2.80
2023-03-18T13:47:24.792Z,2.60
2023-03-18T13:50:26.586Z,2.25
2023-03-18T13:53:02.563Z,2.47
2023-03-18T13:55:45.611Z,3.00
2023-03-18T13:58:30.778Z,3.03
2023-03-18T14:01:25.173Z,2.93
2023-03-18T14:04:02.014Z,3.45
2023-03-18T14:06:56.215Z,2.92
2023-03-18T14:09:35.957Z,2.88
2023-03-18T14:12:33.033Z,3.17
2023-03-18T14:15:12.907Z,2.63
2023-03-18T14:17:59.232Z,2.88
2023-03-18T14:20:42.569Z,3.25
2023-03-18T14:23:38.594Z,2.95
2023-03-18T14:26:26.883Z,3.22
2023-03-18T14:29:09.251Z,2.87
2023-03-18T14:31:43.339Z,2.63
2023-03-18T14:34:18.988Z,3.03
2023-03-18T14:36:54.698Z,2.50
2023-03-18T14:39:38.160Z,2.80
2023-03-18T14:42:24.124Z,3.10
2023-03-18T14:45:07.450Z,2.70
2023-03-18T14:47:46.673Z,2.78
2023-03-18T14:50:34.158Z,2.90
2023-03-18T14:53:35.357Z,2.80
2023-03-18T14:56:25.672Z,3.10
2023-03-18T14:58:57.589Z,3.45
2023-03-18T15:04:34.951Z,2.65
2023-03-18T15:07:37.227Z,2.67
2023-03-18T15:10:21.620Z,3.07
2023-03-18T15:13:15.676Z,2.42
2023-03-18T15:15:49.114Z,2.65
2023-03-18T15:18:32.943Z,2.90
2023-03-18T15:21:19.979Z,2.13
2023-03-18T15:23:56.008Z,3.07
2023-03-18T15:26:40.324Z,3.00
2023-03-18T15:29:36.913Z,2.63
2023-03-18T15:32:32.528Z,2.72
2023-03-18T15:35:19.925Z,3.33
2023-03-18T15:38:18.407Z,2.67
2023-03-18T15:40:55.231Z,2.53
2023-03-18T15:43:31.528Z,2.40
2023-03-18T15:46:14.584Z,2.17
2023-03-18T15:48:56.713Z,3.10
2023-03-18T15:51:32.756Z,2.70
2023-03-18T15:54:30.051Z,2.67
2023-03-18T15:57:14.129Z,2.78
2023-03-18T15:59:48.010Z,2.88
2023-03-18T16:02:20.882Z,2.80
2023-03-18T16:04:53.621Z,2.60
2023-03-18T16:07:28.704Z,3.67
2023-03-18T16:10:00.985Z,3.40
2023-03-18T16:12:34.709Z,3.33
2023-03-18T16:15:10.942Z,2.65
2023-03-18T16:18:06.504Z,2.30
2023-03-18T16:20:39.217Z,2.35
2023-03-18T16:23:12.847Z,2.70
2023-03-18T16:25:57.395Z,2.53
2023-03-18T16:28:30.097Z,2.70
2023-03-18T16:31:02.821Z,3.03
2023-03-18T16:33:35.643Z,3.30
2023-03-18T16:36:11.126Z,2.63
2023-03-18T16:38:46.005Z,2.30
2023-03-18T16:41:19.523Z,2.75
2023-03-18T16:43:51.418Z,2.57
2023-03-18T16:46:25.267Z,3.13
2023-03-18T16:49:32.306Z,2.88
2023-03-18T16:52:05.236Z,3.10
2023-03-18T16:54:37.460Z,2.90
2023-03-18T16:57:18.286Z,2.83
2023-03-18T16:59:55.726Z,2.88
2023-03-18T17:02:34.679Z,2.60
2023-03-18T17:05:09.243Z,2.60
2023-03-18T17:07:41.848Z,2.85
2023-03-18T17:10:16.786Z,2.97
2023-03-18T17:13:00.192Z,3.10
2023-03-18T17:15:38.116Z,2.60
2023-03-18T17:18:17.260Z,3.00
2023-03-18T17:20:50.144Z,3.50
2023-03-18T17:23:27.161Z,3.27
2023-03-18T17:26:01.332Z,2.80
2023-03-18T17:28:39.393Z,3.10
2023-03-18T17:31:13.482Z,3.10
2023-03-18T17:33:47.223Z,3.50
2023-03-18T17:36:20.992Z,3.27
2023-03-18T17:38:58.461Z,3.00
2023-03-18T17:41:32.410Z,2.95
2023-03-18T17:44:23.869Z,3.17
2023-03-18T17:46:57.536Z,2.92
2023-03-18T17:49:30.235Z,3.50
2023-03-18T17:52:03.046Z,3.53
2023-03-18T17:54:36.419Z,3.28
2023-03-18T17:57:15.549Z,2.97
2023-03-18T17:59:47.551Z,3.33
2023-03-18T18:02:21.530Z,3.00
2023-03-18T18:04:53.495Z,3.92
2023-03-18T18:07:26.888Z,3.47
2023-03-18T18:10:00.808Z,3.90
2023-03-18T18:12:34.393Z,4.15
2023-03-18T18:15:17.983Z,4.77
2023-03-18T18:17:50.354Z,3.65
2023-03-18T18:20:24.472Z,3.63
2023-03-18T18:22:57.270Z,4.30
2023-03-18T18:25:31.326Z,4.40
2023-03-18T18:28:05.912Z,4.43
2023-03-18T18:30:39.022Z,4.50
2023-03-18T18:33:11.410Z,4.05
2023-03-18T18:35:44.767Z,3.92
2023-03-18T18:38:18.495Z,3.95
2023-03-18T18:40:54.003Z,4.43
2023-03-18T18:43:27.005Z,4.55
2023-03-18T18:46:00.176Z,5.20
2023-03-18T18:48:35.705Z,4.90
2023-03-18T18:51:17.337Z,4.80
2023-03-18T18:53:52.924Z,5.33
2023-03-18T18:56:34.537Z,6.70
2023-03-18T18:59:25.091Z,5.57
2023-03-18T19:01:57.470Z,4.72
2023-03-18T19:04:30.154Z,4.70
2023-03-18T19:07:06.465Z,4.83
2023-03-18T19:09:38.899Z,4.50
2023-03-18T19:12:16.483Z,5.28
2023-03-18T19:14:49.134Z,4.75
2023-03-18T19:17:23.375Z,4.88
2023-03-18T19:19:55.531Z,5.00
2023-03-18T19:22:28.858Z,5.07
2023-03-18T19:25:00.768Z,4.70
2023-03-18T19:27:34.353Z,5.28
2023-03-18T19:30:21.446Z,4.80
2023-03-18T19:32:54.249Z,5.10
2023-03-18T19:35:26.818Z,5.13
2023-03-18T19:38:00.465Z,5.22
2023-03-18T19:40:34.072Z,4.50
2023-03-18T19:43:19.509Z,4.70
2023-03-18T19:45:52.081Z,4.73
2023-03-18T19:48:29.294Z,4.78
2023-03-18T19:51:02.541Z,4.82
2023-03-18T19:53:40.819Z,5.05
2023-03-18T19:56:29.587Z,4.97
2023-03-18T19:59:02.359Z,4.50
2023-03-18T20:01:34.491Z,9.38
2023-03-18T20:04:10.639Z,6.05
2023-03-18T20:06:43.050Z,4.65
2023-03-18T20:09:15.869Z,4.80
2023-03-18T20:11:51.206Z,4.57
2023-03-18T20:14:31.303Z,4.82
2023-03-18T20:17:29.920Z,4.40
2023-03-18T20:20:02.316Z,4.75
2023-03-18T20:22:38.737Z,4.32
2023-03-18T20:25:30.314Z,4.30
2023-03-18T20:28:04.568Z,4.20
2023-03-18T20:30:39.892Z,4.20
2023-03-18T20:33:12.627Z,3.95
2023-03-18T20:35:47.139Z,4.20
2023-03-18T20:38:35.874Z,5.15
2023-03-18T20:41:08.151Z,4.00
2023-03-18T20:43:40.968Z,4.00
2023-03-18T20:46:14.291Z,3.60
2023-03-18T20:51:42.616Z,3.90
2023-03-18T20:54:19.182Z,4.30
2023-03-18T20:56:51.744Z,4.00
2023-03-18T20:59:25.163Z,3.95
2023-03-18T21:01:57.235Z,4.28
2023-03-18T21:04:30.042Z,3.75
2023-03-18T21:07:02.423Z,4.68
2023-03-18T21:09:34.867Z,4.70
2023-03-18T21:12:06.841Z,4.68
2023-03-18T21:14:39.536Z,4.15
2023-03-18T21:17:22.487Z,4.63
2023-03-18T21:20:00.745Z,4.30
2023-03-18T21:22:37.963Z,5.07
2023-03-18T21:25:24.028Z,4.60
2023-03-18T21:30:52.578Z,4.10
2023-03-18T21:33:32.591Z,4.63
2023-03-18T21:36:06.876Z,4.70
2023-03-18T21:38:39.229Z,4.55
2023-03-18T21:41:31.793Z,4.40
2023-03-18T21:44:05.761Z,4.57
2023-03-18T21:46:38.175Z,4.07
2023-03-18T21:49:11.444Z,4.30
2023-03-18T21:51:44.487Z,4.60
2023-03-18T21:54:20.552Z,4.15
2023-03-18T21:56:55.345Z,4.57
2023-03-18T21:59:28.366Z,4.72
2023-03-18T22:02:00.710Z,4.50
2023-03-18T22:04:33.437Z,4.80
2023-03-18T22:07:08.915Z,5.15
2023-03-18T22:09:42.975Z,4.18
2023-03-18T22:12:26.356Z,4.68
2023-03-18T22:15:00.592Z,4.40
2023-03-18T22:17:35.196Z,4.20
2023-03-18T22:20:11.431Z,4.47
2023-03-18T22:22:47.765Z,4.57
2023-03-18T22:25:37.356Z,4.43
2023-03-18T22:28:11.875Z,4.43
2023-03-18T22:30:47.573Z,4.22
2023-03-18T22:33:26.102Z,4.28
2023-03-18T22:35:59.760Z,4.22
2023-03-18T22:38:35.277Z,4.38
2023-03-18T22:41:19.260Z,4.20
2023-03-18T22:43:54.678Z,3.50
2023-03-18T22:46:28.376Z,3.88
2023-03-18T22:49:19.566Z,4.07
2023-03-18T22:51:51.539Z,4.20
2023-03-18T22:54:24.769Z,4.10
2023-03-18T22:56:58.817Z,4.38
2023-03-18T22:59:33.778Z,4.75
2023-03-18T23:02:12.782Z,3.50
2023-03-18T23:04:48.062Z,4.78
2023-03-18T23:07:33.441Z,3.50
2023-03-18T23:10:06.477Z,3.55
2023-03-18T23:12:38.587Z,3.60
2023-03-18T23:15:21.454Z,3.90
2023-03-18T23:17:53.992Z,3.55
2023-03-18T23:20:26.752Z,3.95
2023-03-18T23:22:59.419Z,4.15
2023-03-18T23:25:32.059Z,3.65
2023-03-18T23:28:04.242Z,4.00
2023-03-18T23:33:34.083Z,3.80
2023-03-18T23:36:07.840Z,4.22
2023-03-18T23:38:40.399Z,4.03
2023-03-18T23:41:13.267Z,3.90
2023-03-18T23:43:47.635Z,3.45
2023-03-18T23:46:20.990Z,3.60
2023-03-18T23:48:52.898Z,3.92
2023-03-18T23:51:26.388Z,3.58
2023-03-18T23:53:58.627Z,3.65
2023-03-18T23:56:31.819Z,3.75
2023-03-18T23:59:03.831Z,3.90
